Time,TemperatureF,DewpointF,PressureIn,WindDirection,WindDirectionDegrees,WindSpeedMPH,WindSpeedGustMPH,Humidity,HourlyPrecipIn,Conditions,Clouds,dailyrainin,SoftwareType,DateUTC
2013-06-13 00:02:00,63.0,54.0,30.09,NNW,330,6.0,-999.0,72,-99.99,,,-99.99,,2013-06-13 05:02:00,
2013-06-13 00:12:00,61.0,54.0,30.08,NNW,340,6.0,-999.0,77,-99.99,,,-99.99,,2013-06-13 05:12:00,
2013-06-13 00:24:00,61.0,54.0,30.08,NNW,340,6.0,-999.0,77,-99.99,,,-99.99,,2013-06-13 05:24:00,
2013-06-13 00:33:00,61.0,54.0,30.07,North,350,5.0,-999.0,77,-99.99,,,-99.99,,2013-06-13 05:33:00,
2013-06-13 00:42:00,61.0,54.0,30.07,North,350,5.0,-999.0,77,-99.99,,,-99.99,,2013-06-13 05:42:00,
2013-06-13 00:53:00,61.0,54.0,30.08,North,350,5.0,-999.0,77,-99.99,,,-99.99,,2013-06-13 05:53:00,
2013-06-13 01:02:00,61.0,54.0,30.08,North,350,5.0,-999.0,77,-99.99,,,-99.99,,2013-06-13 06:02:00,
2013-06-13 01:11:00,59.0,54.0,30.08,North,0,0.0,-999.0,82,-99.99,,,-99.99,,2013-06-13 06:11:00,
2013-06-13 01:22:00,59.0,54.0,30.08,North,0,0.0,-999.0,82,-99.99,,,-99.99,,2013-06-13 06:22:00,
2013-06-13 01:33:00,59.0,54.0,30.09,North,350,5.0,-999.0,82,-99.99,,,-99.99,,2013-06-13 06:33:00,
2013-06-13 01:44:00,59.0,54.0,30.09,North,350,5.0,-999.0,82,-99.99,,,-99.99,,2013-06-13 06:44:00,
2013-06-13 01:52:00,57.0,54.0,30.10,North,0,0.0,-999.0,87,-99.99,,,-99.99,,2013-06-13 06:52:00,
2013-06-13 02:01:00,57.0,54.0,30.10,North,0,0.0,-999.0,87,-99.99,,,-99.99,,2013-06-13 07:01:00,
2013-06-13 02:11:00,57.0,54.0,30.11,North,0,0.0,-999.0,87,-99.99,,,-99.99,,2013-06-13 07:11:00,
2013-06-13 02:22:00,57.0,54.0,30.11,North,0,0.0,-999.0,87,-99.99,,,-99.99,,2013-06-13 07:22:00,
2013-06-13 02:33:00,57.0,54.0,30.11,North,0,0.0,-999.0,87,-99.99,,,-99.99,,2013-06-13 07:33:00,
2013-06-13 02:42:00,57.0,54.0,30.11,North,0,0.0,-999.0,87,-99.99,,,-99.99,,2013-06-13 07:42:00,
2013-06-13 02:52:00,57.0,54.0,30.11,North,0,0.0,-999.0,87,-99.99,,,-99.99,,2013-06-13 07:52:00,
2013-06-13 03:01:00,57.0,54.0,30.11,North,0,0.0,-999.0,87,-99.99,,,-99.99,,2013-06-13 08:01:00,
2013-06-13 03:11:00,57.0,54.0,30.12,North,0,0.0,-999.0,87,-99.99,,,-99.99,,2013-06-13 08:11:00,
2013-06-13 03:22:00,57.0,54.0,30.12,North,0,0.0,-999.0,87,-99.99,,,-99.99,,2013-06-13 08:22:00,
2013-06-13 03:32:00,57.0,54.0,30.12,North,0,0.0,-999.0,87,-99.99,,,-99.99,,2013-06-13 08:32:00,
2013-06-13 03:43:00,57.0,54.0,30.12,North,0,0.0,-999.0,87,-99.99,,,-99.99,,2013-06-13 08:43:00,
2013-06-13 03:52:00,55.0,54.0,30.12,North,0,0.0,-999.0,93,-99.99,,,-99.99,,2013-06-13 08:52:00,
2013-06-13 04:02:00,55.0,54.0,30.12,North,0,0.0,-999.0,93,-99.99,,,-99.99,,2013-06-13 09:02:00,
2013-06-13 04:11:00,55.0,54.0,30.11,North,0,0.0,-999.0,93,-99.99,,,-99.99,,2013-06-13 09:11:00,
2013-06-13 04:22:00,55.0,54.0,30.11,North,0,0.0,-999.0,93,-99.99,,,-99.99,,2013-06-13 09:22:00,
2013-06-13 04:32:00,55.0,54.0,30.10,North,0,0.0,-999.0,93,-99.99,,,-99.99,,2013-06-13 09:32:00,
2013-06-13 04:42:00,55.0,54.0,30.10,North,0,0.0,-999.0,93,-99.99,,,-99.99,,2013-06-13 09:42:00,
2013-06-13 04:52:00,55.0,52.0,30.11,North,0,0.0,-999.0,87,-99.99,,,-99.99,,2013-06-13 09:52:00,
2013-06-13 05:01:00,55.0,52.0,30.11,North,0,0.0,-999.0,87,-99.99,,,-99.99,,2013-06-13 10:01:00,
2013-06-13 05:11:00,55.0,54.0,30.12,North,0,0.0,-999.0,93,-99.99,,,-99.99,,2013-06-13 10:11:00,
2013-06-13 05:22:00,55.0,54.0,30.12,North,0,0.0,-999.0,93,-99.99,,,-99.99,,2013-06-13 10:22:00,
2013-06-13 05:33:00,55.0,54.0,30.12,North,350,5.0,-999.0,93,-99.99,,,-99.99,,2013-06-13 10:33:00,
2013-06-13 05:42:00,55.0,54.0,30.12,North,350,5.0,-999.0,93,-99.99,,,-99.99,,2013-06-13 10:42:00,
2013-06-13 05:53:00,55.0,52.0,30.13,North,350,6.0,-999.0,87,-99.99,,,-99.99,,2013-06-13 10:53:00,
2013-06-13 06:02:00,55.0,52.0,30.13,North,350,6.0,-999.0,87,-99.99,,,-99.99,,2013-06-13 11:02:00,
2013-06-13 06:11:00,55.0,54.0,30.13,North,-99,6.0,-999.0,93,-99.99,,,-99.99,,2013-06-13 11:11:00,
2013-06-13 06:23:00,55.0,54.0,30.13,North,-99,6.0,-999.0,93,-99.99,,,-99.99,,2013-06-13 11:23:00,
2013-06-13 06:32:00,55.0,52.0,30.13,North,350,6.0,-999.0,87,-99.99,,,-99.99,,2013-06-13 11:32:00,
2013-06-13 06:42:00,55.0,52.0,30.13,North,350,6.0,-999.0,87,-99.99,,,-99.99,,2013-06-13 11:42:00,
2013-06-13 06:52:00,55.0,52.0,30.14,North,350,5.0,-999.0,87,-99.99,,,-99.99,,2013-06-13 11:52:00,
2013-06-13 07:01:00,55.0,52.0,30.14,North,350,5.0,-999.0,87,-99.99,,,-99.99,,2013-06-13 12:01:00,
2013-06-13 07:11:00,57.0,54.0,30.14,North,0,0.0,-999.0,87,-99.99,,,-99.99,,2013-06-13 12:11:00,
2013-06-13 07:22:00,57.0,54.0,30.14,North,0,0.0,-999.0,87,-99.99,,,-99.99,,2013-06-13 12:22:00,
2013-06-13 07:34:00,57.0,54.0,30.15,North,0,0.0,-999.0,87,-99.99,,,-99.99,,2013-06-13 12:34:00,
2013-06-13 07:42:00,57.0,54.0,30.15,North,0,0.0,-999.0,87,-99.99,,,-99.99,,2013-06-13 12:42:00,
2013-06-13 07:52:00,61.0,54.0,30.15,North,350,5.0,-999.0,77,-99.99,,,-99.99,,2013-06-13 12:52:00,
2013-06-13 08:01:00,61.0,54.0,30.15,North,350,5.0,-999.0,77,-99.99,,,-99.99,,2013-06-13 13:01:00,
2013-06-13 08:11:00,61.0,54.0,30.15,NNE,20,7.0,-999.0,77,-99.99,,,-99.99,,2013-06-13 13:11:00,
2013-06-13 08:21:00,61.0,54.0,30.15,NNE,20,7.0,-999.0,77,-99.99,,,-99.99,,2013-06-13 13:21:00,
2013-06-13 08:32:00,63.0,54.0,30.16,North,10,5.0,-999.0,72,-99.99,,,-99.99,,2013-06-13 13:32:00,
2013-06-13 08:43:00,63.0,54.0,30.16,North,10,5.0,-999.0,72,-99.99,,,-99.99,,2013-06-13 13:43:00,
2013-06-13 08:53:00,63.0,55.0,30.15,NNE,30,7.0,-999.0,77,-99.99,,,-99.99,,2013-06-13 13:53:00,
2013-06-13 09:02:00,63.0,55.0,30.15,NNE,30,7.0,-999.0,77,-99.99,,,-99.99,,2013-06-13 14:02:00,
2013-06-13 09:11:00,64.0,55.0,30.15,NNE,30,5.0,-999.0,72,-99.99,,,-99.99,,2013-06-13 14:11:00,
2013-06-13 09:22:00,64.0,55.0,30.15,NNE,30,5.0,-999.0,72,-99.99,,,-99.99,,2013-06-13 14:22:00,
2013-06-13 09:33:00,66.0,55.0,30.16,NNE,20,8.0,-999.0,68,-99.99,,,-99.99,,2013-06-13 14:33:00,
2013-06-13 09:43:00,66.0,55.0,30.16,NNE,20,8.0,-999.0,68,-99.99,,,-99.99,,2013-06-13 14:43:00,
2013-06-13 09:53:00,66.0,55.0,30.16,NNE,20,7.0,-999.0,68,-99.99,,,-99.99,,2013-06-13 14:53:00,
2013-06-13 10:01:00,66.0,55.0,30.16,NNE,20,7.0,-999.0,68,-99.99,,,-99.99,,2013-06-13 15:01:00,
2013-06-13 10:12:00,68.0,55.0,30.16,NE,50,7.0,-999.0,64,-99.99,,,-99.99,,2013-06-13 15:12:00,
2013-06-13 10:22:00,68.0,55.0,30.16,NE,50,7.0,-999.0,64,-99.99,,,-99.99,,2013-06-13 15:22:00,
2013-06-13 10:33:00,70.0,55.0,30.15,NNE,30,7.0,-999.0,60,-99.99,,,-99.99,,2013-06-13 15:33:00,
2013-06-13 10:43:00,70.0,55.0,30.15,NNE,30,7.0,-999.0,60,-99.99,,,-99.99,,2013-06-13 15:43:00,
2013-06-13 10:53:00,72.0,55.0,30.15,North,0,0.0,-999.0,56,-99.99,,,-99.99,,2013-06-13 15:53:00,
2013-06-13 11:02:00,72.0,55.0,30.15,North,0,0.0,-999.0,56,-99.99,,,-99.99,,2013-06-13 16:02:00,
2013-06-13 11:12:00,72.0,54.0,30.15,NE,40,9.0,-999.0,53,-99.99,,,-99.99,,2013-06-13 16:12:00,
2013-06-13 11:22:00,72.0,54.0,30.15,NE,40,9.0,-999.0,53,-99.99,,,-99.99,,2013-06-13 16:22:00,
2013-06-13 11:33:00,72.0,55.0,30.15,NNE,20,6.0,-999.0,56,-99.99,,,-99.99,,2013-06-13 16:33:00,
2013-06-13 11:43:00,72.0,55.0,30.15,NNE,20,6.0,-999.0,56,-99.99,,,-99.99,,2013-06-13 16:43:00,
2013-06-13 11:53:00,72.0,52.0,30.15,ENE,70,7.0,-999.0,49,-99.99,,,-99.99,,2013-06-13 16:53:00,
2013-06-13 12:02:00,72.0,52.0,30.15,ENE,70,7.0,-999.0,49,-99.99,,,-99.99,,2013-06-13 17:02:00,
2013-06-13 12:11:00,72.0,54.0,30.15,ENE,60,8.0,-999.0,53,-99.99,,,-99.99,,2013-06-13 17:11:00,
2013-06-13 12:24:00,72.0,54.0,30.15,ENE,60,8.0,-999.0,53,-99.99,,,-99.99,,2013-06-13 17:24:00,
2013-06-13 12:32:00,73.0,54.0,30.13,East,80,8.0,-999.0,49,-99.99,,,-99.99,,2013-06-13 17:32:00,
2013-06-13 12:43:00,73.0,54.0,30.13,East,80,8.0,-999.0,49,-99.99,,,-99.99,,2013-06-13 17:43:00,
2013-06-13 12:53:00,73.0,54.0,30.13,NE,40,10.0,-999.0,49,-99.99,,,-99.99,,2013-06-13 17:53:00,
2013-06-13 13:02:00,73.0,54.0,30.13,NE,40,10.0,-999.0,49,-99.99,,,-99.99,,2013-06-13 18:02:00,
2013-06-13 13:11:00,73.0,52.0,30.12,ENE,60,10.0,-999.0,46,-99.99,,,-99.99,,2013-06-13 18:11:00,
2013-06-13 13:22:00,73.0,52.0,30.12,ENE,60,10.0,-999.0,46,-99.99,,,-99.99,,2013-06-13 18:22:00,
2013-06-13 13:33:00,73.0,50.0,30.12,North,0,0.0,-999.0,43,-99.99,,,-99.99,,2013-06-13 18:33:00,
2013-06-13 13:43:00,73.0,50.0,30.12,North,0,0.0,-999.0,43,-99.99,,,-99.99,,2013-06-13 18:43:00,
2013-06-13 13:52:00,75.0,52.0,30.13,ESE,120,8.0,-999.0,43,-99.99,,,-99.99,,2013-06-13 18:52:00,
2013-06-13 14:01:00,75.0,52.0,30.13,ESE,120,8.0,-999.0,43,-99.99,,,-99.99,,2013-06-13 19:01:00,
2013-06-13 14:11:00,75.0,52.0,30.12,East,80,8.0,-999.0,43,-99.99,,,-99.99,,2013-06-13 19:11:00,
2013-06-13 14:22:00,75.0,52.0,30.12,East,80,8.0,-999.0,43,-99.99,,,-99.99,,2013-06-13 19:22:00,
2013-06-13 14:33:00,75.0,52.0,30.12,NE,40,7.0,-999.0,43,-99.99,,,-99.99,,2013-06-13 19:33:00,
2013-06-13 14:43:00,75.0,52.0,30.12,NE,40,7.0,-999.0,43,-99.99,,,-99.99,,2013-06-13 19:43:00,
2013-06-13 14:53:00,75.0,52.0,30.12,North,0,0.0,-999.0,43,-99.99,,,-99.99,,2013-06-13 19:53:00,
2013-06-13 15:01:00,75.0,52.0,30.12,North,0,0.0,-999.0,43,-99.99,,,-99.99,,2013-06-13 20:01:00,
2013-06-13 15:11:00,77.0,52.0,30.11,North,0,0.0,-999.0,41,-99.99,,,-99.99,,2013-06-13 20:11:00,
2013-06-13 15:22:00,77.0,52.0,30.11,North,0,0.0,-999.0,41,-99.99,,,-99.99,,2013-06-13 20:22:00,
2013-06-13 15:32:00,77.0,52.0,30.11,NNE,30,6.0,-999.0,41,-99.99,,,-99.99,,2013-06-13 20:32:00,
2013-06-13 15:44:00,77.0,52.0,30.11,NNE,30,6.0,-999.0,41,-99.99,,,-99.99,,2013-06-13 20:44:00,
2013-06-13 15:53:00,77.0,52.0,30.11,ENE,60,7.0,-999.0,41,-99.99,,,-99.99,,2013-06-13 20:53:00,
2013-06-13 16:02:00,77.0,52.0,30.11,ENE,60,7.0,-999.0,41,-99.99,,,-99.99,,2013-06-13 21:02:00,
2013-06-13 16:11:00,79.0,52.0,30.11,North,0,0.0,-999.0,39,-99.99,,,-99.99,,2013-06-13 21:11:00,
2013-06-13 16:22:00,79.0,52.0,30.11,North,0,0.0,-999.0,39,-99.99,,,-99.99,,2013-06-13 21:22:00,
2013-06-13 16:34:00,79.0,54.0,30.10,ESE,120,8.0,-999.0,41,-99.99,,,-99.99,,2013-06-13 21:34:00,
2013-06-13 16:43:00,79.0,54.0,30.10,ESE,120,8.0,-999.0,41,-99.99,,,-99.99,,2013-06-13 21:43:00,
2013-06-13 16:52:00,79.0,52.0,30.10,East,90,7.0,-999.0,39,-99.99,,,-99.99,,2013-06-13 21:52:00,
2013-06-13 17:02:00,79.0,52.0,30.10,East,90,7.0,-999.0,39,-99.99,,,-99.99,,2013-06-13 22:02:00,
2013-06-13 17:11:00,79.0,50.0,30.08,North,0,0.0,-999.0,36,-99.99,,,-99.99,,2013-06-13 22:11:00,
2013-06-13 17:22:00,79.0,50.0,30.08,North,0,0.0,-999.0,36,-99.99,,,-99.99,,2013-06-13 22:22:00,
2013-06-13 17:32:00,79.0,52.0,30.08,SE,130,8.0,-999.0,39,-99.99,,,-99.99,,2013-06-13 22:32:00,
2013-06-13 17:42:00,79.0,52.0,30.08,SE,130,8.0,-999.0,39,-99.99,,,-99.99,,2013-06-13 22:42:00,
2013-06-13 17:52:00,79.0,54.0,30.07,ESE,120,8.0,-999.0,41,-99.99,,,-99.99,,2013-06-13 22:52:00,
2013-06-13 18:02:00,79.0,54.0,30.07,ESE,120,8.0,-999.0,41,-99.99,,,-99.99,,2013-06-13 23:02:00,
2013-06-13 18:11:00,79.0,52.0,30.07,East,100,8.0,-999.0,39,-99.99,,,-99.99,,2013-06-13 23:11:00,
2013-06-13 18:22:00,79.0,52.0,30.07,East,100,8.0,-999.0,39,-99.99,,,-99.99,,2013-06-13 23:22:00,
2013-06-13 18:32:00,79.0,52.0,30.06,SE,130,5.0,-999.0,39,-99.99,,,-99.99,,2013-06-13 23:32:00,
2013-06-13 18:43:00,79.0,52.0,30.06,SE,130,5.0,-999.0,39,-99.99,,,-99.99,,2013-06-13 23:43:00,
2013-06-13 18:52:00,79.0,54.0,30.06,ESE,120,5.0,-999.0,41,-99.99,,,-99.99,,2013-06-13 23:52:00,
2013-06-13 19:01:00,79.0,54.0,30.06,ESE,120,5.0,-999.0,41,-99.99,,,-99.99,,2013-06-14 00:01:00,
2013-06-13 19:11:00,79.0,54.0,30.06,ESE,120,5.0,-999.0,41,-99.99,,,-99.99,,2013-06-14 00:11:00,
2013-06-13 19:22:00,79.0,54.0,30.06,ESE,120,5.0,-999.0,41,-99.99,,,-99.99,,2013-06-14 00:22:00,
2013-06-13 19:34:00,77.0,54.0,30.04,East,100,7.0,-999.0,44,-99.99,,,-99.99,,2013-06-14 00:34:00,
2013-06-13 19:43:00,77.0,54.0,30.04,East,100,7.0,-999.0,44,-99.99,,,-99.99,,2013-06-14 00:43:00,
2013-06-13 19:53:00,75.0,55.0,30.04,East,100,5.0,-999.0,50,-99.99,,,-99.99,,2013-06-14 00:53:00,
2013-06-13 20:01:00,75.0,55.0,30.04,East,100,5.0,-999.0,50,-99.99,,,-99.99,,2013-06-14 01:01:00,
2013-06-13 20:11:00,75.0,55.0,30.04,ESE,110,7.0,-999.0,50,-99.99,,,-99.99,,2013-06-14 01:11:00,
2013-06-13 20:22:00,75.0,55.0,30.04,ESE,110,7.0,-999.0,50,-99.99,,,-99.99,,2013-06-14 01:22:00,
2013-06-13 20:32:00,75.0,55.0,30.04,ESE,120,6.0,-999.0,50,-99.99,,,-99.99,,2013-06-14 01:32:00,
2013-06-13 20:43:00,75.0,55.0,30.04,ESE,120,6.0,-999.0,50,-99.99,,,-99.99,,2013-06-14 01:43:00,
2013-06-13 20:52:00,75.0,55.0,30.04,East,100,6.0,-999.0,50,-99.99,,,-99.99,,2013-06-14 01:52:00,
2013-06-13 21:02:00,75.0,55.0,30.04,East,100,6.0,-999.0,50,-99.99,,,-99.99,,2013-06-14 02:02:00,
2013-06-13 21:11:00,73.0,55.0,30.04,North,0,0.0,-999.0,53,-99.99,,,-99.99,,2013-06-14 02:11:00,
2013-06-13 21:22:00,73.0,55.0,30.04,North,0,0.0,-999.0,53,-99.99,,,-99.99,,2013-06-14 02:22:00,
2013-06-13 21:32:00,73.0,57.0,30.03,North,0,0.0,-999.0,56,-99.99,,,-99.99,,2013-06-14 02:32:00,
2013-06-13 21:43:00,73.0,57.0,30.03,North,0,0.0,-999.0,56,-99.99,,,-99.99,,2013-06-14 02:43:00,
2013-06-13 21:52:00,72.0,57.0,30.04,North,0,0.0,-999.0,60,-99.99,,,-99.99,,2013-06-14 02:52:00,
2013-06-13 22:02:00,72.0,57.0,30.04,North,0,0.0,-999.0,60,-99.99,,,-99.99,,2013-06-14 03:02:00,
2013-06-13 22:11:00,70.0,57.0,30.03,North,0,0.0,-999.0,64,-99.99,,,-99.99,,2013-06-14 03:11:00,
2013-06-13 22:22:00,70.0,57.0,30.03,North,0,0.0,-999.0,64,-99.99,,,-99.99,,2013-06-14 03:22:00,
2013-06-13 22:34:00,68.0,57.0,30.04,North,0,0.0,-999.0,68,-99.99,,,-99.99,,2013-06-14 03:34:00,
2013-06-13 22:43:00,68.0,57.0,30.04,North,0,0.0,-999.0,68,-99.99,,,-99.99,,2013-06-14 03:43:00,
2013-06-13 22:52:00,68.0,59.0,30.06,North,0,0.0,-999.0,72,-99.99,,,-99.99,,2013-06-14 03:52:00,
2013-06-13 23:01:00,68.0,59.0,30.06,North,0,0.0,-999.0,72,-99.99,,,-99.99,,2013-06-14 04:01:00,
2013-06-13 23:12:00,70.0,57.0,30.07,North,0,0.0,-999.0,64,-99.99,,,-99.99,,2013-06-14 04:12:00,
2013-06-13 23:22:00,70.0,57.0,30.07,North,0,0.0,-999.0,64,-99.99,,,-99.99,,2013-06-14 04:22:00,
2013-06-13 23:33:00,70.0,57.0,30.08,North,0,0.0,-999.0,64,-99.99,,,-99.99,,2013-06-14 04:33:00,
2013-06-13 23:43:00,70.0,57.0,30.08,North,0,0.0,-999.0,64,-99.99,,,-99.99,,2013-06-14 04:43:00,
2013-06-13 23:53:00,70.0,57.0,30.09,North,0,0.0,-999.0,64,-99.99,,,-99.99,,2013-06-14 04:53:00,